sensor_id;sensor_type;location;lat;lon;timestamp;P1;durP1;ratioP1;P2;durP2;ratioP2
59159;SDS011;44941;45.058;20.076;2022-12-07T00:00:00;59.05;;;27.52;;
59159;SDS011;44941;45.058;20.076;2022-12-07T00:02:26;57.33;;;28.45;;
59159;SDS011;44941;45.058;20.076;2022-12-07T00:04:52;61.53;;;30.52;;
59159;SDS011;44941;45.058;20.076;2022-12-07T00:07:18;62.90;;;28.15;;
59159;SDS011;44941;45.058;20.076;2022-12-07T00:09:44;60.15;;;29.00;;
59159;SDS011;44941;45.058;20.076;2022-12-07T00:12:10;70.30;;;28.25;;
59159;SDS011;44941;45.058;20.076;2022-12-07T00:14:36;67.85;;;28.35;;
59159;SDS011;44941;45.058;20.076;2022-12-07T00:17:03;63.83;;;25.88;;
59159;SDS011;44941;45.058;20.076;2022-12-07T00:19:29;60.17;;;25.48;;
59159;SDS011;44941;45.058;20.076;2022-12-07T00:21:55;63.40;;;24.02;;
59159;SDS011;44941;45.058;20.076;2022-12-07T00:24:21;53.10;;;22.25;;
59159;SDS011;44941;45.058;20.076;2022-12-07T00:26:47;49.80;;;23.02;;
59159;SDS011;44941;45.058;20.076;2022-12-07T00:35:20;54.38;;;23.85;;
59159;SDS011;44941;45.058;20.076;2022-12-07T00:37:46;61.13;;;24.65;;
59159;SDS011;44941;45.058;20.076;2022-12-07T00:40:12;57.78;;;23.95;;
59159;SDS011;44941;45.058;20.076;2022-12-07T00:42:38;53.35;;;23.33;;
59159;SDS011;44941;45.058;20.076;2022-12-07T00:45:05;57.70;;;24.90;;
59159;SDS011;44941;45.058;20.076;2022-12-07T00:47:31;57.05;;;23.02;;
59159;SDS011;44941;45.058;20.076;2022-12-07T00:49:57;57.15;;;23.45;;
59159;SDS011;44941;45.058;20.076;2022-12-07T00:52:23;52.13;;;22.63;;
59159;SDS011;44941;45.058;20.076;2022-12-07T00:54:49;53.83;;;21.95;;
59159;SDS011;44941;45.058;20.076;2022-12-07T00:57:15;53.97;;;20.50;;
59159;SDS011;44941;45.058;20.076;2022-12-07T00:59:41;56.55;;;21.83;;
59159;SDS011;44941;45.058;20.076;2022-12-07T01:02:07;59.45;;;22.05;;
59159;SDS011;44941;45.058;20.076;2022-12-07T01:04:34;57.92;;;21.55;;
59159;SDS011;44941;45.058;20.076;2022-12-07T01:07:00;55.85;;;20.15;;
59159;SDS011;44941;45.058;20.076;2022-12-07T01:09:26;50.00;;;17.80;;
59159;SDS011;44941;45.058;20.076;2022-12-07T01:11:52;47.80;;;18.30;;
59159;SDS011;44941;45.058;20.076;2022-12-07T01:14:18;41.67;;;16.88;;
59159;SDS011;44941;45.058;20.076;2022-12-07T01:16:44;45.33;;;18.35;;
59159;SDS011;44941;45.058;20.076;2022-12-07T01:19:10;45.97;;;17.20;;
59159;SDS011;44941;45.058;20.076;2022-12-07T01:21:36;45.58;;;17.15;;
59159;SDS011;44941;45.058;20.076;2022-12-07T01:24:04;39.55;;;15.88;;
59159;SDS011;44941;45.058;20.076;2022-12-07T01:26:30;34.83;;;15.40;;
59159;SDS011;44941;45.058;20.076;2022-12-07T01:28:57;44.08;;;16.80;;
59159;SDS011;44941;45.058;20.076;2022-12-07T01:31:24;41.85;;;17.50;;
59159;SDS011;44941;45.058;20.076;2022-12-07T01:33:52;52.53;;;19.00;;
59159;SDS011;44941;45.058;20.076;2022-12-07T01:36:19;48.72;;;19.27;;
59159;SDS011;44941;45.058;20.076;2022-12-07T01:38:45;48.38;;;19.20;;
59159;SDS011;44941;45.058;20.076;2022-12-07T01:41:12;50.03;;;19.02;;
59159;SDS011;44941;45.058;20.076;2022-12-07T01:46:23;47.28;;;20.25;;
59159;SDS011;44941;45.058;20.076;2022-12-07T01:48:49;50.15;;;20.50;;
59159;SDS011;44941;45.058;20.076;2022-12-07T01:51:15;41.97;;;18.58;;
59159;SDS011;44941;45.058;20.076;2022-12-07T01:53:43;47.45;;;18.58;;
59159;SDS011;44941;45.058;20.076;2022-12-07T01:56:11;36.90;;;16.48;;
59159;SDS011;44941;45.058;20.076;2022-12-07T01:58:38;42.55;;;16.92;;
59159;SDS011;44941;45.058;20.076;2022-12-07T02:01:07;42.88;;;18.65;;
59159;SDS011;44941;45.058;20.076;2022-12-07T02:03:43;41.08;;;17.58;;
59159;SDS011;44941;45.058;20.076;2022-12-07T02:06:10;44.03;;;19.67;;
59159;SDS011;44941;45.058;20.076;2022-12-07T02:08:37;45.13;;;20.17;;
59159;SDS011;44941;45.058;20.076;2022-12-07T02:11:03;47.53;;;21.20;;
59159;SDS011;44941;45.058;20.076;2022-12-07T02:13:31;46.10;;;21.73;;
59159;SDS011;44941;45.058;20.076;2022-12-07T02:18:58;41.50;;;19.27;;
59159;SDS011;44941;45.058;20.076;2022-12-07T02:21:39;39.72;;;17.60;;
59159;SDS011;44941;45.058;20.076;2022-12-07T02:27:08;37.95;;;16.75;;
59159;SDS011;44941;45.058;20.076;2022-12-07T02:29:41;39.47;;;18.05;;
59159;SDS011;44941;45.058;20.076;2022-12-07T02:34:42;34.78;;;17.20;;
59159;SDS011;44941;45.058;20.076;2022-12-07T02:37:17;33.78;;;17.15;;
59159;SDS011;44941;45.058;20.076;2022-12-07T02:39:50;34.08;;;17.77;;
59159;SDS011;44941;45.058;20.076;2022-12-07T02:42:17;34.85;;;17.88;;
59159;SDS011;44941;45.058;20.076;2022-12-07T02:47:12;31.30;;;16.55;;
59159;SDS011;44941;45.058;20.076;2022-12-07T02:49:39;35.22;;;17.63;;
59159;SDS011;44941;45.058;20.076;2022-12-07T02:52:05;32.20;;;16.90;;
59159;SDS011;44941;45.058;20.076;2022-12-07T02:54:31;34.60;;;18.20;;
59159;SDS011;44941;45.058;20.076;2022-12-07T02:59:35;35.85;;;19.65;;
59159;SDS011;44941;45.058;20.076;2022-12-07T03:10:24;32.90;;;18.52;;
59159;SDS011;44941;45.058;20.076;2022-12-07T03:15:22;33.42;;;19.05;;
59159;SDS011;44941;45.058;20.076;2022-12-07T03:17:51;35.22;;;18.60;;
59159;SDS011;44941;45.058;20.076;2022-12-07T03:20:19;37.17;;;18.83;;
59159;SDS011;44941;45.058;20.076;2022-12-07T03:22:46;35.87;;;19.50;;
59159;SDS011;44941;45.058;20.076;2022-12-07T03:25:13;34.53;;;18.83;;
59159;SDS011;44941;45.058;20.076;2022-12-07T03:27:44;40.33;;;19.73;;
59159;SDS011;44941;45.058;20.076;2022-12-07T03:30:15;42.08;;;19.58;;
59159;SDS011;44941;45.058;20.076;2022-12-07T03:32:48;41.05;;;18.75;;
59159;SDS011;44941;45.058;20.076;2022-12-07T03:35:23;42.88;;;20.17;;
59159;SDS011;44941;45.058;20.076;2022-12-07T03:38:06;41.50;;;19.15;;
59159;SDS011;44941;45.058;20.076;2022-12-07T03:43:11;37.33;;;17.83;;
59159;SDS011;44941;45.058;20.076;2022-12-07T03:45:38;40.72;;;19.60;;
59159;SDS011;44941;45.058;20.076;2022-12-07T03:48:10;36.95;;;18.95;;
59159;SDS011;44941;45.058;20.076;2022-12-07T03:53:16;37.63;;;19.42;;
59159;SDS011;44941;45.058;20.076;2022-12-07T03:55:44;34.80;;;18.35;;
59159;SDS011;44941;45.058;20.076;2022-12-07T03:58:12;40.65;;;18.13;;
59159;SDS011;44941;45.058;20.076;2022-12-07T04:00:40;35.88;;;18.35;;
59159;SDS011;44941;45.058;20.076;2022-12-07T04:03:07;33.47;;;16.90;;
59159;SDS011;44941;45.058;20.076;2022-12-07T04:05:33;35.70;;;17.65;;
59159;SDS011;44941;45.058;20.076;2022-12-07T04:07:59;41.10;;;18.85;;
59159;SDS011;44941;45.058;20.076;2022-12-07T04:10:26;35.75;;;17.63;;
59159;SDS011;44941;45.058;20.076;2022-12-07T04:12:52;41.13;;;19.13;;
59159;SDS011;44941;45.058;20.076;2022-12-07T04:15:18;34.17;;;16.98;;
59159;SDS011;44941;45.058;20.076;2022-12-07T04:17:44;35.83;;;18.23;;
59159;SDS011;44941;45.058;20.076;2022-12-07T04:20:10;34.20;;;17.73;;
59159;SDS011;44941;45.058;20.076;2022-12-07T04:22:36;40.13;;;18.20;;
59159;SDS011;44941;45.058;20.076;2022-12-07T04:25:03;34.90;;;17.85;;
59159;SDS011;44941;45.058;20.076;2022-12-07T04:27:29;37.58;;;17.83;;
59159;SDS011;44941;45.058;20.076;2022-12-07T04:29:55;33.42;;;16.75;;
59159;SDS011;44941;45.058;20.076;2022-12-07T04:32:22;38.65;;;17.50;;
59159;SDS011;44941;45.058;20.076;2022-12-07T04:34:48;37.00;;;18.15;;
59159;SDS011;44941;45.058;20.076;2022-12-07T04:37:14;36.50;;;17.95;;
59159;SDS011;44941;45.058;20.076;2022-12-07T04:39:40;37.72;;;19.08;;
59159;SDS011;44941;45.058;20.076;2022-12-07T04:42:06;39.75;;;19.77;;
59159;SDS011;44941;45.058;20.076;2022-12-07T04:44:32;42.03;;;19.63;;
59159;SDS011;44941;45.058;20.076;2022-12-07T04:46:58;36.80;;;18.05;;
59159;SDS011;44941;45.058;20.076;2022-12-07T04:49:25;41.17;;;19.67;;
59159;SDS011;44941;45.058;20.076;2022-12-07T04:51:51;40.15;;;19.75;;
59159;SDS011;44941;45.058;20.076;2022-12-07T04:54:17;38.70;;;19.30;;
59159;SDS011;44941;45.058;20.076;2022-12-07T04:56:43;39.63;;;19.40;;
59159;SDS011;44941;45.058;20.076;2022-12-07T04:59:11;40.85;;;21.15;;
59159;SDS011;44941;45.058;20.076;2022-12-07T05:01:37;43.13;;;19.40;;
59159;SDS011;44941;45.058;20.076;2022-12-07T05:04:03;46.42;;;20.05;;
59159;SDS011;44941;45.058;20.076;2022-12-07T05:06:29;40.97;;;19.08;;
59159;SDS011;44941;45.058;20.076;2022-12-07T05:08:55;39.13;;;18.40;;
59159;SDS011;44941;45.058;20.076;2022-12-07T05:11:21;43.47;;;21.88;;
59159;SDS011;44941;45.058;20.076;2022-12-07T05:14:03;44.72;;;20.35;;
59159;SDS011;44941;45.058;20.076;2022-12-07T05:16:30;44.63;;;20.48;;
59159;SDS011;44941;45.058;20.076;2022-12-07T05:18:56;43.85;;;20.95;;
59159;SDS011;44941;45.058;20.076;2022-12-07T05:21:22;41.00;;;18.75;;
59159;SDS011;44941;45.058;20.076;2022-12-07T05:23:48;38.50;;;18.45;;
59159;SDS011;44941;45.058;20.076;2022-12-07T05:26:14;41.15;;;20.33;;
59159;SDS011;44941;45.058;20.076;2022-12-07T05:28:41;39.40;;;18.70;;
59159;SDS011;44941;45.058;20.076;2022-12-07T05:31:07;38.40;;;18.65;;
59159;SDS011;44941;45.058;20.076;2022-12-07T05:33:33;43.17;;;19.77;;
59159;SDS011;44941;45.058;20.076;2022-12-07T05:35:59;39.70;;;18.35;;
59159;SDS011;44941;45.058;20.076;2022-12-07T05:38:30;39.67;;;18.33;;
59159;SDS011;44941;45.058;20.076;2022-12-07T05:40:59;39.67;;;19.23;;
59159;SDS011;44941;45.058;20.076;2022-12-07T05:43:26;35.53;;;17.95;;
59159;SDS011;44941;45.058;20.076;2022-12-07T05:45:52;39.58;;;19.02;;
59159;SDS011;44941;45.058;20.076;2022-12-07T05:48:18;37.83;;;18.92;;
59159;SDS011;44941;45.058;20.076;2022-12-07T05:50:47;37.60;;;18.88;;
59159;SDS011;44941;45.058;20.076;2022-12-07T05:53:13;43.80;;;20.17;;
59159;SDS011;44941;45.058;20.076;2022-12-07T05:55:39;41.40;;;18.88;;
59159;SDS011;44941;45.058;20.076;2022-12-07T05:58:05;44.05;;;19.17;;
59159;SDS011;44941;45.058;20.076;2022-12-07T06:01:09;39.08;;;18.35;;
59159;SDS011;44941;45.058;20.076;2022-12-07T06:03:35;40.70;;;18.23;;
59159;SDS011;44941;45.058;20.076;2022-12-07T06:06:02;41.63;;;19.20;;
59159;SDS011;44941;45.058;20.076;2022-12-07T06:08:28;39.88;;;19.48;;
59159;SDS011;44941;45.058;20.076;2022-12-07T06:10:54;39.88;;;18.33;;
59159;SDS011;44941;45.058;20.076;2022-12-07T06:13:40;35.83;;;18.13;;
59159;SDS011;44941;45.058;20.076;2022-12-07T06:16:06;41.03;;;18.40;;
59159;SDS011;44941;45.058;20.076;2022-12-07T06:18:32;37.10;;;18.55;;
59159;SDS011;44941;45.058;20.076;2022-12-07T06:20:58;35.17;;;16.75;;
59159;SDS011;44941;45.058;20.076;2022-12-07T06:23:24;37.38;;;17.98;;
59159;SDS011;44941;45.058;20.076;2022-12-07T06:25:50;39.75;;;17.35;;
59159;SDS011;44941;45.058;20.076;2022-12-07T06:28:16;38.00;;;17.73;;
59159;SDS011;44941;45.058;20.076;2022-12-07T06:30:46;38.95;;;17.85;;
59159;SDS011;44941;45.058;20.076;2022-12-07T06:33:12;33.60;;;17.27;;
59159;SDS011;44941;45.058;20.076;2022-12-07T06:35:38;35.22;;;16.85;;
59159;SDS011;44941;45.058;20.076;2022-12-07T06:38:04;41.80;;;18.48;;
59159;SDS011;44941;45.058;20.076;2022-12-07T06:40:30;34.30;;;16.30;;
59159;SDS011;44941;45.058;20.076;2022-12-07T06:42:56;32.78;;;17.13;;
59159;SDS011;44941;45.058;20.076;2022-12-07T06:45:22;38.35;;;16.83;;
59159;SDS011;44941;45.058;20.076;2022-12-07T06:47:48;34.85;;;16.83;;
59159;SDS011;44941;45.058;20.076;2022-12-07T06:50:14;37.08;;;16.88;;
59159;SDS011;44941;45.058;20.076;2022-12-07T06:52:40;35.45;;;16.73;;
59159;SDS011;44941;45.058;20.076;2022-12-07T06:55:06;38.20;;;18.10;;
59159;SDS011;44941;45.058;20.076;2022-12-07T06:57:32;36.13;;;17.33;;
59159;SDS011;44941;45.058;20.076;2022-12-07T06:59:58;34.15;;;16.70;;
59159;SDS011;44941;45.058;20.076;2022-12-07T07:02:24;31.55;;;16.90;;
59159;SDS011;44941;45.058;20.076;2022-12-07T07:04:51;32.03;;;16.23;;
59159;SDS011;44941;45.058;20.076;2022-12-07T07:07:17;37.55;;;17.85;;
59159;SDS011;44941;45.058;20.076;2022-12-07T07:09:43;37.30;;;18.30;;
59159;SDS011;44941;45.058;20.076;2022-12-07T07:12:09;38.17;;;18.20;;
59159;SDS011;44941;45.058;20.076;2022-12-07T07:14:35;42.45;;;21.00;;
59159;SDS011;44941;45.058;20.076;2022-12-07T07:17:01;41.58;;;21.58;;
59159;SDS011;44941;45.058;20.076;2022-12-07T07:19:27;41.58;;;20.00;;
59159;SDS011;44941;45.058;20.076;2022-12-07T07:21:53;40.63;;;20.48;;
59159;SDS011;44941;45.058;20.076;2022-12-07T07:24:19;39.97;;;20.73;;
59159;SDS011;44941;45.058;20.076;2022-12-07T07:26:45;39.83;;;17.95;;
59159;SDS011;44941;45.058;20.076;2022-12-07T07:29:12;38.15;;;18.52;;
59159;SDS011;44941;45.058;20.076;2022-12-07T07:31:38;35.47;;;16.48;;
59159;SDS011;44941;45.058;20.076;2022-12-07T07:34:04;40.63;;;19.33;;
59159;SDS011;44941;45.058;20.076;2022-12-07T07:36:30;38.50;;;18.13;;
59159;SDS011;44941;45.058;20.076;2022-12-07T07:38:56;38.22;;;18.38;;
59159;SDS011;44941;45.058;20.076;2022-12-07T07:41:22;35.00;;;15.95;;
59159;SDS011;44941;45.058;20.076;2022-12-07T07:43:48;37.13;;;16.02;;
59159;SDS011;44941;45.058;20.076;2022-12-07T07:46:14;37.35;;;15.68;;
59159;SDS011;44941;45.058;20.076;2022-12-07T07:48:40;41.33;;;16.35;;
59159;SDS011;44941;45.058;20.076;2022-12-07T07:51:07;46.40;;;17.70;;
59159;SDS011;44941;45.058;20.076;2022-12-07T07:53:33;42.38;;;17.73;;
59159;SDS011;44941;45.058;20.076;2022-12-07T07:55:59;42.60;;;17.10;;
59159;SDS011;44941;45.058;20.076;2022-12-07T07:58:25;41.60;;;16.73;;
59159;SDS011;44941;45.058;20.076;2022-12-07T08:00:51;38.92;;;18.83;;
59159;SDS011;44941;45.058;20.076;2022-12-07T08:03:18;44.60;;;20.55;;
59159;SDS011;44941;45.058;20.076;2022-12-07T08:05:44;39.75;;;17.35;;
59159;SDS011;44941;45.058;20.076;2022-12-07T08:08:10;33.65;;;16.23;;
59159;SDS011;44941;45.058;20.076;2022-12-07T08:10:37;33.78;;;15.68;;
59159;SDS011;44941;45.058;20.076;2022-12-07T08:13:03;38.17;;;16.50;;
59159;SDS011;44941;45.058;20.076;2022-12-07T08:15:35;36.75;;;17.20;;
59159;SDS011;44941;45.058;20.076;2022-12-07T08:18:02;46.78;;;23.45;;
59159;SDS011;44941;45.058;20.076;2022-12-07T08:20:29;41.03;;;21.05;;
59159;SDS011;44941;45.058;20.076;2022-12-07T08:22:56;32.25;;;14.93;;
59159;SDS011;44941;45.058;20.076;2022-12-07T08:25:22;31.17;;;14.02;;
59159;SDS011;44941;45.058;20.076;2022-12-07T08:27:48;23.35;;;11.95;;
59159;SDS011;44941;45.058;20.076;2022-12-07T08:30:14;28.25;;;14.43;;
59159;SDS011;44941;45.058;20.076;2022-12-07T08:32:41;34.58;;;14.70;;
59159;SDS011;44941;45.058;20.076;2022-12-07T08:35:07;32.35;;;14.35;;
59159;SDS011;44941;45.058;20.076;2022-12-07T08:37:33;31.42;;;13.95;;
59159;SDS011;44941;45.058;20.076;2022-12-07T08:39:59;29.00;;;13.40;;
59159;SDS011;44941;45.058;20.076;2022-12-07T08:42:25;31.17;;;14.77;;
59159;SDS011;44941;45.058;20.076;2022-12-07T08:44:55;32.05;;;14.35;;
59159;SDS011;44941;45.058;20.076;2022-12-07T08:47:21;33.30;;;14.32;;
59159;SDS011;44941;45.058;20.076;2022-12-07T08:49:48;32.15;;;15.25;;
59159;SDS011;44941;45.058;20.076;2022-12-07T08:52:15;32.60;;;15.00;;
59159;SDS011;44941;45.058;20.076;2022-12-07T08:54:42;39.40;;;18.42;;
59159;SDS011;44941;45.058;20.076;2022-12-07T08:57:08;41.22;;;18.48;;
59159;SDS011;44941;45.058;20.076;2022-12-07T08:59:35;38.75;;;19.48;;
59159;SDS011;44941;45.058;20.076;2022-12-07T09:02:01;40.00;;;19.63;;
59159;SDS011;44941;45.058;20.076;2022-12-07T09:04:27;33.10;;;15.57;;
59159;SDS011;44941;45.058;20.076;2022-12-07T09:06:54;30.15;;;14.82;;
59159;SDS011;44941;45.058;20.076;2022-12-07T09:09:20;32.08;;;14.35;;
59159;SDS011;44941;45.058;20.076;2022-12-07T09:11:46;26.80;;;12.98;;
59159;SDS011;44941;45.058;20.076;2022-12-07T09:14:12;29.98;;;13.25;;
59159;SDS011;44941;45.058;20.076;2022-12-07T09:16:39;27.58;;;13.02;;
59159;SDS011;44941;45.058;20.076;2022-12-07T09:19:05;28.30;;;13.43;;
59159;SDS011;44941;45.058;20.076;2022-12-07T09:21:31;25.60;;;12.02;;
59159;SDS011;44941;45.058;20.076;2022-12-07T09:23:58;28.50;;;13.57;;
59159;SDS011;44941;45.058;20.076;2022-12-07T09:26:24;43.50;;;20.40;;
59159;SDS011;44941;45.058;20.076;2022-12-07T09:28:50;44.30;;;23.00;;
59159;SDS011;44941;45.058;20.076;2022-12-07T09:31:17;43.55;;;22.45;;
59159;SDS011;44941;45.058;20.076;2022-12-07T09:33:43;45.85;;;22.20;;
59159;SDS011;44941;45.058;20.076;2022-12-07T09:36:09;44.53;;;21.63;;
59159;SDS011;44941;45.058;20.076;2022-12-07T09:38:35;39.08;;;20.35;;
59159;SDS011;44941;45.058;20.076;2022-12-07T09:41:07;31.50;;;18.00;;
59159;SDS011;44941;45.058;20.076;2022-12-07T09:43:34;31.38;;;17.20;;
59159;SDS011;44941;45.058;20.076;2022-12-07T09:46:00;36.25;;;19.90;;
59159;SDS011;44941;45.058;20.076;2022-12-07T09:48:31;34.08;;;17.85;;
59159;SDS011;44941;45.058;20.076;2022-12-07T09:50:58;32.95;;;18.13;;
59159;SDS011;44941;45.058;20.076;2022-12-07T09:55:51;31.80;;;17.38;;
59159;SDS011;44941;45.058;20.076;2022-12-07T09:58:25;32.10;;;17.25;;
59159;SDS011;44941;45.058;20.076;2022-12-07T10:00:53;31.20;;;17.63;;
59159;SDS011;44941;45.058;20.076;2022-12-07T10:03:19;30.98;;;17.15;;
59159;SDS011;44941;45.058;20.076;2022-12-07T10:05:46;29.40;;;16.05;;
59159;SDS011;44941;45.058;20.076;2022-12-07T10:08:14;35.15;;;17.20;;
59159;SDS011;44941;45.058;20.076;2022-12-07T10:10:43;30.85;;;17.25;;
59159;SDS011;44941;45.058;20.076;2022-12-07T10:13:13;32.55;;;16.77;;
59159;SDS011;44941;45.058;20.076;2022-12-07T10:20:59;28.40;;;16.23;;
59159;SDS011;44941;45.058;20.076;2022-12-07T10:23:25;32.55;;;17.38;;
59159;SDS011;44941;45.058;20.076;2022-12-07T10:25:51;32.85;;;16.45;;
59159;SDS011;44941;45.058;20.076;2022-12-07T10:28:20;35.65;;;17.65;;
59159;SDS011;44941;45.058;20.076;2022-12-07T10:38:50;29.83;;;16.40;;
59159;SDS011;44941;45.058;20.076;2022-12-07T10:41:17;32.15;;;17.38;;
59159;SDS011;44941;45.058;20.076;2022-12-07T10:43:47;30.60;;;16.50;;
59159;SDS011;44941;45.058;20.076;2022-12-07T10:51:30;37.60;;;20.05;;
59159;SDS011;44941;45.058;20.076;2022-12-07T11:01:33;45.78;;;22.80;;
59159;SDS011;44941;45.058;20.076;2022-12-07T11:09:26;38.03;;;20.80;;
59159;SDS011;44941;45.058;20.076;2022-12-07T11:17:07;138.38;;;49.30;;
59159;SDS011;44941;45.058;20.076;2022-12-07T11:22:14;128.68;;;44.05;;
59159;SDS011;44941;45.058;20.076;2022-12-07T11:24:57;67.78;;;29.58;;
59159;SDS011;44941;45.058;20.076;2022-12-07T11:32:41;85.07;;;41.67;;
59159;SDS011;44941;45.058;20.076;2022-12-07T11:37:55;53.47;;;29.35;;
59159;SDS011;44941;45.058;20.076;2022-12-07T11:40:27;45.92;;;23.30;;
59159;SDS011;44941;45.058;20.076;2022-12-07T11:45:37;23.95;;;14.45;;
59159;SDS011;44941;45.058;20.076;2022-12-07T11:48:06;26.67;;;14.30;;
59159;SDS011;44941;45.058;20.076;2022-12-07T11:50:41;25.33;;;14.98;;
59159;SDS011;44941;45.058;20.076;2022-12-07T11:58:03;25.48;;;14.02;;
59159;SDS011;44941;45.058;20.076;2022-12-07T12:00:30;23.50;;;13.27;;
59159;SDS011;44941;45.058;20.076;2022-12-07T12:03:13;23.85;;;13.90;;
59159;SDS011;44941;45.058;20.076;2022-12-07T12:05:41;23.40;;;13.55;;
59159;SDS011;44941;45.058;20.076;2022-12-07T12:08:15;23.10;;;13.32;;
59159;SDS011;44941;45.058;20.076;2022-12-07T12:10:53;24.58;;;14.65;;
59159;SDS011;44941;45.058;20.076;2022-12-07T12:13:36;28.10;;;15.55;;
59159;SDS011;44941;45.058;20.076;2022-12-07T12:21:22;23.45;;;12.90;;
59159;SDS011;44941;45.058;20.076;2022-12-07T12:23:59;24.25;;;13.82;;
59159;SDS011;44941;45.058;20.076;2022-12-07T12:26:27;23.25;;;14.13;;
59159;SDS011;44941;45.058;20.076;2022-12-07T12:33:47;24.38;;;14.07;;
59159;SDS011;44941;45.058;20.076;2022-12-07T12:36:47;22.20;;;13.25;;
59159;SDS011;44941;45.058;20.076;2022-12-07T12:51:42;45.53;;;20.42;;
59159;SDS011;44941;45.058;20.076;2022-12-07T12:59:23;76.63;;;35.53;;
59159;SDS011;44941;45.058;20.076;2022-12-07T13:01:50;60.05;;;30.23;;
59159;SDS011;44941;45.058;20.076;2022-12-07T13:04:21;69.50;;;33.23;;
59159;SDS011;44941;45.058;20.076;2022-12-07T13:06:48;53.22;;;26.83;;
59159;SDS011;44941;45.058;20.076;2022-12-07T13:09:33;33.35;;;18.17;;
59159;SDS011;44941;45.058;20.076;2022-12-07T13:12:04;25.40;;;13.93;;
59159;SDS011;44941;45.058;20.076;2022-12-07T13:17:09;27.35;;;15.38;;
59159;SDS011;44941;45.058;20.076;2022-12-07T13:19:57;32.15;;;16.13;;
59159;SDS011;44941;45.058;20.076;2022-12-07T13:27:34;28.83;;;16.05;;
59159;SDS011;44941;45.058;20.076;2022-12-07T13:30:02;64.50;;;29.20;;
59159;SDS011;44941;45.058;20.076;2022-12-07T13:32:33;69.78;;;31.48;;
59159;SDS011;44941;45.058;20.076;2022-12-07T13:35:00;45.40;;;22.17;;
59159;SDS011;44941;45.058;20.076;2022-12-07T13:37:27;65.95;;;27.30;;
59159;SDS011;44941;45.058;20.076;2022-12-07T13:39:57;43.78;;;19.70;;
59159;SDS011;44941;45.058;20.076;2022-12-07T13:42:28;63.55;;;28.38;;
59159;SDS011;44941;45.058;20.076;2022-12-07T13:44:54;50.95;;;24.45;;
59159;SDS011;44941;45.058;20.076;2022-12-07T13:49:47;24.65;;;13.07;;
59159;SDS011;44941;45.058;20.076;2022-12-07T13:52:18;31.33;;;15.23;;
59159;SDS011;44941;45.058;20.076;2022-12-07T13:54:48;36.30;;;18.85;;
59159;SDS011;44941;45.058;20.076;2022-12-07T13:57:15;49.17;;;24.05;;
59159;SDS011;44941;45.058;20.076;2022-12-07T13:59:42;69.70;;;31.55;;
59159;SDS011;44941;45.058;20.076;2022-12-07T14:02:21;60.85;;;26.90;;
59159;SDS011;44941;45.058;20.076;2022-12-07T14:04:48;57.33;;;28.23;;
59159;SDS011;44941;45.058;20.076;2022-12-07T14:07:22;51.30;;;26.47;;
59159;SDS011;44941;45.058;20.076;2022-12-07T14:12:22;28.08;;;16.55;;
59159;SDS011;44941;45.058;20.076;2022-12-07T14:14:48;31.13;;;21.63;;
59159;SDS011;44941;45.058;20.076;2022-12-07T14:17:15;23.65;;;15.82;;
59159;SDS011;44941;45.058;20.076;2022-12-07T14:27:31;41.13;;;22.88;;
59159;SDS011;44941;45.058;20.076;2022-12-07T14:29:59;21.30;;;12.50;;
59159;SDS011;44941;45.058;20.076;2022-12-07T14:32:27;22.35;;;11.07;;
59159;SDS011;44941;45.058;20.076;2022-12-07T14:37:49;38.80;;;20.60;;
59159;SDS011;44941;45.058;20.076;2022-12-07T14:40:17;41.83;;;19.70;;
59159;SDS011;44941;45.058;20.076;2022-12-07T14:42:44;33.70;;;16.85;;
59159;SDS011;44941;45.058;20.076;2022-12-07T14:45:16;35.00;;;16.45;;
59159;SDS011;44941;45.058;20.076;2022-12-07T14:47:43;34.65;;;14.75;;
59159;SDS011;44941;45.058;20.076;2022-12-07T14:50:16;161.02;;;86.43;;
59159;SDS011;44941;45.058;20.076;2022-12-07T14:52:43;75.60;;;39.40;;
59159;SDS011;44941;45.058;20.076;2022-12-07T14:55:17;40.92;;;21.48;;
59159;SDS011;44941;45.058;20.076;2022-12-07T14:57:45;37.03;;;18.27;;
59159;SDS011;44941;45.058;20.076;2022-12-07T15:00:14;37.65;;;19.10;;
59159;SDS011;44941;45.058;20.076;2022-12-07T15:02:42;35.65;;;17.92;;
59159;SDS011;44941;45.058;20.076;2022-12-07T15:05:08;32.28;;;15.95;;
59159;SDS011;44941;45.058;20.076;2022-12-07T15:07:34;27.30;;;15.93;;
59159;SDS011;44941;45.058;20.076;2022-12-07T15:10:00;30.70;;;15.75;;
59159;SDS011;44941;45.058;20.076;2022-12-07T15:12:27;19.73;;;11.10;;
59159;SDS011;44941;45.058;20.076;2022-12-07T15:14:53;22.27;;;11.52;;
59159;SDS011;44941;45.058;20.076;2022-12-07T15:17:19;24.23;;;12.77;;
59159;SDS011;44941;45.058;20.076;2022-12-07T15:19:45;29.15;;;15.05;;
59159;SDS011;44941;45.058;20.076;2022-12-07T15:22:11;23.98;;;13.88;;
59159;SDS011;44941;45.058;20.076;2022-12-07T15:24:37;23.30;;;13.80;;
59159;SDS011;44941;45.058;20.076;2022-12-07T15:27:04;24.58;;;14.02;;
59159;SDS011;44941;45.058;20.076;2022-12-07T15:29:30;25.42;;;14.35;;
59159;SDS011;44941;45.058;20.076;2022-12-07T15:31:56;26.58;;;14.65;;
59159;SDS011;44941;45.058;20.076;2022-12-07T15:34:25;32.47;;;17.58;;
59159;SDS011;44941;45.058;20.076;2022-12-07T15:36:53;31.48;;;17.42;;
59159;SDS011;44941;45.058;20.076;2022-12-07T15:39:19;30.27;;;18.10;;
59159;SDS011;44941;45.058;20.076;2022-12-07T15:41:46;30.83;;;17.48;;
59159;SDS011;44941;45.058;20.076;2022-12-07T15:44:13;32.38;;;16.55;;
59159;SDS011;44941;45.058;20.076;2022-12-07T15:46:58;27.23;;;17.08;;
59159;SDS011;44941;45.058;20.076;2022-12-07T15:49:25;31.55;;;18.80;;
59159;SDS011;44941;45.058;20.076;2022-12-07T15:51:51;28.55;;;19.38;;
59159;SDS011;44941;45.058;20.076;2022-12-07T15:54:19;34.40;;;21.63;;
59159;SDS011;44941;45.058;20.076;2022-12-07T15:56:45;35.92;;;21.15;;
59159;SDS011;44941;45.058;20.076;2022-12-07T15:59:11;26.52;;;18.13;;
59159;SDS011;44941;45.058;20.076;2022-12-07T16:01:37;27.50;;;16.58;;
59159;SDS011;44941;45.058;20.076;2022-12-07T16:04:03;26.38;;;16.13;;
59159;SDS011;44941;45.058;20.076;2022-12-07T16:06:29;24.02;;;14.80;;
59159;SDS011;44941;45.058;20.076;2022-12-07T16:08:55;23.27;;;13.82;;
59159;SDS011;44941;45.058;20.076;2022-12-07T16:11:22;24.08;;;15.57;;
59159;SDS011;44941;45.058;20.076;2022-12-07T16:13:48;33.42;;;19.95;;
59159;SDS011;44941;45.058;20.076;2022-12-07T16:16:15;35.65;;;19.88;;
59159;SDS011;44941;45.058;20.076;2022-12-07T16:18:41;23.52;;;13.93;;
59159;SDS011;44941;45.058;20.076;2022-12-07T16:21:08;21.15;;;12.32;;
59159;SDS011;44941;45.058;20.076;2022-12-07T16:23:34;19.85;;;10.93;;
59159;SDS011;44941;45.058;20.076;2022-12-07T16:26:07;18.73;;;10.15;;
59159;SDS011;44941;45.058;20.076;2022-12-07T16:28:34;14.70;;;8.38;;
59159;SDS011;44941;45.058;20.076;2022-12-07T16:31:04;12.43;;;7.07;;
59159;SDS011;44941;45.058;20.076;2022-12-07T16:33:32;13.75;;;7.43;;
59159;SDS011;44941;45.058;20.076;2022-12-07T16:38:26;18.88;;;8.68;;
59159;SDS011;44941;45.058;20.076;2022-12-07T16:40:52;16.05;;;7.00;;